Time;durP1;ratioP1;P1;durP2;ratioP2;P2;SDS_P1;SDS_P2;PMS_P1;PMS_P2;Temp;Humidity;BMP_temperature;BMP_pressure;BME280_temperature;BME280_humidity;BME280_pressure;Samples;Min_cycle;Max_cycle;Signal;HPM_P1;HPM_P2
2021/08/23 00:00:57;;;;;;;4.53;3.33;;;;;;;19.36;100.00;100451.27;1603863;88;22275;-57
2021/08/23 00:03:24;;;;;;;4.33;3.13;;;;;;;19.38;100.00;100447.06;1604983;87;21101;-61
2021/08/23 00:05:50;;;;;;;7.13;3.63;;;;;;;19.40;100.00;100444.99;1611414;88;21180;-61
2021/08/23 00:08:18;;;;;;;5.03;3.83;;;;;;;19.52;100.00;100440.45;1604745;88;21046;-57
2021/08/23 00:10:45;;;;;;;4.93;4.03;;;;;;;19.35;100.00;100448.84;1608541;88;21068;-59
2021/08/23 00:13:13;;;;;;;6.13;3.90;;;;;;;19.36;100.00;100446.50;1614518;88;21533;-61
2021/08/23 00:15:40;;;;;;;4.77;3.70;;;;;;;19.41;100.00;100443.42;1614626;88;20930;-60
2021/08/23 00:18:08;;;;;;;4.13;3.13;;;;;;;19.30;100.00;100446.12;1612269;87;21522;-61
2021/08/23 00:20:50;;;;;;;6.13;3.43;;;;;;;19.49;100.00;100443.56;1612060;88;21120;-59
2021/08/23 00:23:16;;;;;;;5.47;3.60;;;;;;;19.39;100.00;100440.20;1613722;86;21657;-60
2021/08/23 00:25:42;;;;;;;6.27;3.53;;;;;;;19.22;100.00;100447.81;1613777;88;21642;-61
2021/08/23 00:28:12;;;;;;;5.50;3.23;;;;;;;19.02;100.00;100450.34;1613665;86;20997;-58
2021/08/23 00:30:40;;;;;;;5.93;4.10;;;;;;;18.91;100.00;100448.02;1614662;88;22580;-61
2021/08/23 00:33:08;;;;;;;5.07;3.53;;;;;;;18.91;100.00;100443.25;1615031;88;21134;-61
2021/08/23 00:35:34;;;;;;;5.33;4.30;;;;;;;18.93;100.00;100445.92;1614643;88;21093;-62
2021/08/23 00:38:02;;;;;;;7.17;4.07;;;;;;;18.85;100.00;100448.13;1612446;88;21226;-60
2021/08/23 00:40:28;;;;;;;7.17;4.00;;;;;;;18.81;100.00;100444.36;1612772;88;21054;-58
2021/08/23 00:42:57;;;;;;;6.80;3.40;;;;;;;18.66;100.00;100442.96;1613316;86;21610;-61
2021/08/23 00:45:24;;;;;;;5.20;3.80;;;;;;;18.62;100.00;100443.14;1608592;88;21665;-61
2021/08/23 00:47:50;;;;;;;7.00;3.60;;;;;;;18.65;100.00;100444.53;1614063;88;21144;-60
2021/08/23 00:50:17;;;;;;;6.00;3.43;;;;;;;18.71;100.00;100440.48;1612449;88;21165;-60
2021/08/23 00:52:44;;;;;;;6.47;3.83;;;;;;;18.74;100.00;100437.07;1613389;88;21097;-57
2021/08/23 00:55:11;;;;;;;5.90;3.77;;;;;;;18.81;100.00;100437.75;1613685;88;21104;-60
2021/08/23 00:57:41;;;;;;;5.37;4.17;;;;;;;18.85;100.00;100438.89;1613756;88;21098;-62
2021/08/23 01:00:10;;;;;;;7.13;4.40;;;;;;;18.84;100.00;100446.54;1613333;88;21135;-59
2021/08/23 01:02:58;;;;;;;7.37;4.67;;;;;;;18.83;100.00;100441.78;1612580;87;22479;-61
2021/08/23 01:05:30;;;;;;;5.97;4.37;;;;;;;18.83;100.00;100448.38;1586724;88;21064;-61
2021/08/23 01:08:06;;;;;;;4.13;3.27;;;;;;;18.83;100.00;100450.22;1603398;86;21182;-60
2021/08/23 01:10:38;;;;;;;5.00;3.87;;;;;;;18.84;100.00;100455.78;1601484;88;21630;-59
2021/08/23 01:13:07;;;;;;;;;;;;;;;18.90;100.00;100456.98;1585942;88;21125;-61
2021/08/23 01:15:36;;;;;;;5.30;3.90;;;;;;;18.84;100.00;100457.10;1606662;87;21168;-61
2021/08/23 01:18:03;;;;;;;4.93;3.40;;;;;;;18.92;100.00;100458.06;1605087;88;21050;-60
2021/08/23 01:20:32;;;;;;;5.90;3.40;;;;;;;18.89;100.00;100459.84;1603727;87;21056;-61
2021/08/23 01:22:59;;;;;;;4.43;2.93;;;;;;;19.02;100.00;100468.84;1604638;88;21031;-57
2021/08/23 01:25:31;;;;;;;5.97;3.47;;;;;;;18.83;100.00;100466.07;1604335;88;21117;-60
2021/08/23 01:28:28;;;;;;;5.43;2.83;;;;;;;18.80;100.00;100467.33;1606008;88;21141;-60
2021/08/23 01:31:34;;;;;;;5.93;3.10;;;;;;;18.86;100.00;100461.62;1605972;88;21326;-60
2021/08/23 01:34:00;;;;;;;4.50;3.10;;;;;;;18.96;100.00;100463.16;1602945;87;20995;-57
2021/08/23 01:36:27;;;;;;;5.47;2.93;;;;;;;18.95;100.00;100472.13;1604018;86;20991;-61
2021/08/23 01:38:53;;;;;;;5.50;2.93;;;;;;;19.01;100.00;100459.29;1603983;88;21019;-61
2021/08/23 01:41:20;;;;;;;4.70;3.00;;;;;;;19.00;100.00;100462.97;1605305;88;21156;-60
2021/08/23 01:43:46;;;;;;;4.20;2.40;;;;;;;18.85;100.00;100463.98;1603201;86;20958;-60
2021/08/23 01:46:12;;;;;;;4.60;3.10;;;;;;;18.79;100.00;100460.45;1604933;88;21064;-58
2021/08/23 01:48:39;;;;;;;3.80;2.90;;;;;;;18.71;100.00;100460.28;1604005;88;21161;-61
2021/08/23 01:51:06;;;;;;;5.43;2.90;;;;;;;18.74;100.00;100462.16;1605518;87;21129;-61
2021/08/23 01:53:34;;;;;;;4.27;2.90;;;;;;;18.75;100.00;100461.12;1604167;86;22245;-61
2021/08/23 01:56:01;;;;;;;5.30;2.90;;;;;;;18.76;100.00;100456.14;1602986;88;21074;-58
2021/08/23 01:58:28;;;;;;;4.00;3.10;;;;;;;18.69;100.00;100451.75;1600116;88;21125;-61
2021/08/23 02:00:54;;;;;;;4.13;3.03;;;;;;;18.76;100.00;100452.98;1604846;88;21154;-62
2021/08/23 02:03:21;;;;;;;4.37;2.60;;;;;;;18.79;100.00;100453.02;1607969;88;21058;-60
2021/08/23 02:05:47;;;;;;;4.20;2.60;;;;;;;18.78;100.00;100450.09;1605727;87;21523;-57
2021/08/23 02:08:15;;;;;;;5.03;3.23;;;;;;;18.74;100.00;100448.95;1606421;88;22058;-60
2021/08/23 02:10:42;;;;;;;4.53;2.90;;;;;;;18.81;100.00;100451.76;1605722;86;21125;-61
2021/08/23 02:13:09;;;;;;;4.17;3.13;;;;;;;18.91;100.00;100445.89;1605510;86;21087;-61
2021/08/23 02:15:37;;;;;;;4.77;2.97;;;;;;;18.90;100.00;100448.23;1610717;86;20949;-58
2021/08/23 02:18:04;;;;;;;5.13;2.90;;;;;;;18.84;100.00;100453.14;1605218;86;21162;-61
2021/08/23 02:20:30;;;;;;;4.63;3.00;;;;;;;18.83;100.00;100453.66;1603877;88;21155;-61
2021/08/23 02:22:57;;;;;;;4.27;2.90;;;;;;;18.91;100.00;100448.53;1604930;87;22210;-61
2021/08/23 02:25:23;;;;;;;4.70;3.30;;;;;;;18.89;100.00;100448.75;1605508;88;21123;-61
2021/08/23 02:27:51;;;;;;;5.67;2.93;;;;;;;18.93;100.00;100453.85;1603902;88;20947;-58
2021/08/23 02:30:20;;;;;;;5.70;3.60;;;;;;;18.86;100.00;100451.85;1603960;86;21341;-58
2021/08/23 02:32:47;;;;;;;5.83;2.87;;;;;;;18.83;100.00;100460.78;1601007;88;21027;-61
2021/08/23 02:35:13;;;;;;;4.10;3.00;;;;;;;18.82;100.00;100457.31;1604304;88;20967;-61
2021/08/23 02:37:40;;;;;;;6.03;3.23;;;;;;;18.80;100.00;100462.05;1603139;87;21104;-61
2021/08/23 02:40:08;;;;;;;4.20;2.97;;;;;;;18.84;100.00;100467.67;1603089;87;20979;-60
2021/08/23 02:42:34;;;;;;;5.63;3.27;;;;;;;18.82;100.00;100462.59;1602399;88;21142;-59
2021/08/23 02:45:01;;;;;;;5.27;3.20;;;;;;;18.81;100.00;100467.60;1603748;88;21090;-61
2021/08/23 02:47:28;;;;;;;4.20;3.30;;;;;;;18.82;100.00;100464.44;1602764;88;21119;-61
2021/08/23 02:49:55;;;;;;;5.53;3.03;;;;;;;18.78;100.00;100457.50;1603324;87;21121;-58
2021/08/23 02:52:21;;;;;;;4.00;2.90;;;;;;;18.69;100.00;100460.19;1599733;88;21132;-60
2021/08/23 02:54:49;;;;;;;5.23;3.53;;;;;;;18.80;100.00;100458.61;1602524;87;21069;-61
2021/08/23 02:57:16;;;;;;;6.03;3.33;;;;;;;18.80;100.00;100458.61;1602886;88;21541;-62
2021/08/23 02:59:43;;;;;;;4.13;2.93;;;;;;;18.82;100.00;100463.12;1603673;87;21023;-60
2021/08/23 03:02:09;;;;;;;3.33;2.63;;;;;;;18.82;100.00;100455.20;1694881;82;20929;-60
2021/08/23 03:04:35;;;;;;;4.13;3.10;;;;;;;18.88;100.00;100456.92;1721329;82;22328;-60
2021/08/23 03:07:02;;;;;;;4.10;3.33;;;;;;;18.96;100.00;100460.52;1723427;82;22380;-61
2021/08/23 03:09:31;;;;;;;4.27;3.13;;;;;;;19.01;100.00;100463.25;1717020;82;20983;-62
2021/08/23 03:11:58;;;;;;;6.07;3.27;;;;;;;19.10;100.00;100463.19;1731022;82;21054;-61
2021/08/23 03:14:24;;;;;;;4.60;2.80;;;;;;;19.22;100.00;100458.39;1728588;82;21032;-60
2021/08/23 03:16:51;;;;;;;5.70;3.17;;;;;;;19.27;100.00;100457.95;1727541;82;21076;-61
2021/08/23 03:19:17;;;;;;;5.80;2.53;;;;;;;19.32;100.00;100466.48;1726829;81;21107;-61
2021/08/23 03:21:44;;;;;;;5.27;2.97;;;;;;;19.36;100.00;100461.84;1728761;82;21058;-60
2021/08/23 03:24:11;;;;;;;6.20;2.87;;;;;;;19.40;100.00;100465.62;1726238;82;21442;-57
2021/08/23 03:26:39;;;;;;;5.17;3.30;;;;;;;19.29;100.00;100463.02;1722930;82;22318;-60
2021/08/23 03:29:06;;;;;;;4.87;2.80;;;;;;;19.43;100.00;100470.94;1732423;82;21296;-62
2021/08/23 03:31:33;;;;;;;4.80;2.47;;;;;;;19.55;100.00;100466.95;1728500;82;22200;-61
2021/08/23 03:33:59;;;;;;;6.07;2.77;;;;;;;20.00;100.00;100463.48;1721285;82;21457;-57
2021/08/23 03:36:26;;;;;;;4.83;2.30;;;;;;;20.69;100.00;100457.94;1727964;82;20984;-58
2021/08/23 03:38:52;;;;;;;4.67;2.73;;;;;;;21.65;100.00;100452.94;1723049;82;21475;-61
2021/08/23 03:41:18;;;;;;;5.70;2.50;;;;;;;22.30;100.00;100445.77;1729149;82;20995;-61
2021/08/23 03:43:45;;;;;;;3.80;2.60;;;;;;;22.90;100.00;100441.03;1727389;82;21175;-61
2021/08/23 03:46:12;;;;;;;4.30;2.47;;;;;;;23.35;100.00;100440.40;1730064;81;21001;-58
2021/08/23 03:48:39;;;;;;;3.97;2.57;;;;;;;23.61;100.00;100435.91;1726472;82;21094;-59
2021/08/23 03:51:05;;;;;;;3.93;2.17;;;;;;;23.90;100.00;100442.05;1722617;82;21580;-61
2021/08/23 03:53:32;;;;;;;4.07;2.70;;;;;;;24.08;100.00;100438.06;1728402;82;21041;-61
2021/08/23 03:55:59;;;;;;;3.93;2.93;;;;;;;24.13;100.00;100444.70;1720754;82;21151;-61
2021/08/23 03:58:26;;;;;;;4.80;3.20;;;;;;;24.54;100.00;100443.32;1729545;82;20967;-61
2021/08/23 04:00:53;;;;;;;3.93;2.63;;;;;;;25.10;100.00;100445.80;1724997;82;21146;-62
2021/08/23 04:03:20;;;;;;;3.90;2.50;;;;;;;25.54;100.00;100448.46;1721171;82;21036;-60
2021/08/23 04:05:46;;;;;;;5.13;3.20;;;;;;;26.10;100.00;100443.20;1721363;82;21147;-60
2021/08/23 04:08:13;;;;;;;4.43;2.53;;;;;;;26.87;99.40;100445.88;1724057;82;21131;-61
2021/08/23 04:10:40;;;;;;;3.98;2.90;;;;;;;27.35;89.14;100443.91;1721596;82;21011;-60
2021/08/23 04:13:06;;;;;;;5.05;2.67;;;;;;;27.76;81.19;100445.96;1713557;82;20913;-60
2021/08/23 04:15:33;;;;;;;5.67;2.90;;;;;;;28.04;73.79;100444.16;1723255;82;21082;-62
2021/08/23 04:17:59;;;;;;;3.35;2.40;;;;;;;28.44;68.05;100439.70;1717192;82;21078;-60
2021/08/23 04:20:26;;;;;;;4.25;2.65;;;;;;;28.60;66.10;100442.32;1718695;82;21182;-62
2021/08/23 04:22:53;;;;;;;3.20;2.50;;;;;;;28.79;60.31;100438.18;1719370;82;20945;-58
2021/08/23 04:25:20;;;;;;;3.35;2.80;;;;;;;28.69;62.12;100444.57;1718017;82;21075;-60
2021/08/23 04:27:47;;;;;;;3.77;3.00;;;;;;;28.77;60.81;100448.44;1719940;82;21479;-62
2021/08/23 04:30:14;;;;;;;5.78;3.50;;;;;;;29.05;59.75;100441.15;1722782;82;21015;-61
2021/08/23 04:32:40;;;;;;;3.47;2.62;;;;;;;29.29;56.11;100447.61;1718102;82;21217;-59
2021/08/23 04:35:08;;;;;;;4.10;2.65;;;;;;;29.38;55.33;100449.02;1719574;82;20945;-58
2021/08/23 04:37:34;;;;;;;4.67;2.77;;;;;;;29.49;53.82;100447.13;1714503;82;22365;-61
2021/08/23 04:40:01;;;;;;;2.98;2.45;;;;;;;29.73;55.16;100440.11;1714865;82;21052;-61
2021/08/23 04:42:29;;;;;;;3.80;2.87;;;;;;;30.29;51.62;100440.59;1718248;82;21035;-61
2021/08/23 04:44:55;;;;;;;5.53;2.67;;;;;;;30.73;50.06;100445.56;1718336;82;21165;-61
2021/08/23 04:47:22;;;;;;;3.22;2.55;;;;;;;31.24;47.34;100438.66;1718989;82;21118;-59
2021/08/23 04:49:48;;;;;;;5.10;2.72;;;;;;;31.57;46.53;100443.58;1718474;82;21011;-61
2021/08/23 04:52:14;;;;;;;4.25;2.90;;;;;;;32.08;44.64;100442.67;1717292;82;20997;-61
2021/08/23 04:54:41;;;;;;;3.70;2.27;;;;;;;32.44;43.90;100440.88;1716514;82;21557;-62
2021/08/23 04:57:07;;;;;;;4.45;2.75;;;;;;;32.86;41.48;100436.89;1720469;82;21065;-62
2021/08/23 04:59:34;;;;;;;3.50;2.27;;;;;;;33.02;41.10;100435.77;1716789;82;21110;-61
2021/08/23 05:02:00;;;;;;;3.52;2.50;;;;;;;33.30;40.26;100442.78;1717581;82;21106;-62
2021/08/23 05:04:26;;;;;;;3.87;2.70;;;;;;;33.71;39.86;100438.98;1724359;82;21545;-61
2021/08/23 05:06:53;;;;;;;4.50;2.15;;;;;;;34.29;38.77;100445.97;1725375;82;20948;-59
2021/08/23 05:09:20;;;;;;;4.53;2.27;;;;;;;34.63;36.77;100441.25;1724199;82;22399;-59
2021/08/23 05:11:47;;;;;;;4.83;2.30;;;;;;;34.79;36.70;100434.55;1723935;82;21022;-62
2021/08/23 05:14:13;;;;;;;4.22;2.80;;;;;;;35.05;35.79;100445.02;1727019;82;21497;-60
2021/08/23 05:16:40;;;;;;;3.15;2.25;;;;;;;34.91;35.70;100436.44;1718604;82;21628;-62
2021/08/23 05:19:07;;;;;;;3.33;2.00;;;;;;;34.72;35.42;100441.89;1709175;82;21056;-63
2021/08/23 05:21:34;;;;;;;3.08;2.10;;;;;;;34.50;36.17;100445.87;1699814;83;21157;-62
2021/08/23 05:24:03;;;;;;;4.10;2.27;;;;;;;34.38;36.23;100441.80;1700220;84;20937;-62
2021/08/23 05:26:29;;;;;;;3.83;2.58;;;;;;;34.57;36.25;100443.38;1700507;83;20977;-62
2021/08/23 05:28:56;;;;;;;5.03;2.47;;;;;;;34.73;35.91;100444.03;1703933;82;21502;-59
2021/08/23 05:31:23;;;;;;;3.80;2.45;;;;;;;34.77;35.83;100445.71;1698301;84;21080;-59
2021/08/23 05:33:50;;;;;;;5.87;2.90;;;;;;;34.79;35.25;100450.80;1697716;83;21453;-61
2021/08/23 05:36:16;;;;;;;3.83;2.10;;;;;;;34.91;35.11;100452.69;1704242;82;20965;-62
2021/08/23 05:38:43;;;;;;;3.47;2.60;;;;;;;34.95;35.50;100451.66;1702937;82;21020;-62
2021/08/23 05:41:09;;;;;;;4.30;2.42;;;;;;;35.19;34.81;100452.73;1702969;82;21064;-59
2021/08/23 05:43:36;;;;;;;3.00;2.10;;;;;;;35.05;34.40;100451.22;1697622;83;21061;-62
2021/08/23 05:46:03;;;;;;;3.62;2.27;;;;;;;35.02;34.71;100457.31;1700919;82;21549;-61
2021/08/23 05:48:30;;;;;;;4.25;2.27;;;;;;;34.69;35.04;100448.56;1702203;82;20917;-62
2021/08/23 05:50:56;;;;;;;2.83;2.45;;;;;;;34.76;35.64;100446.06;1700469;83;21115;-62
2021/08/23 05:53:23;;;;;;;5.53;2.40;;;;;;;34.92;34.68;100448.84;1700571;84;20991;-59
2021/08/23 05:55:49;;;;;;;5.05;2.58;;;;;;;34.79;34.74;100444.81;1701674;82;21123;-61
2021/08/23 05:58:16;;;;;;;3.10;2.60;;;;;;;34.84;35.26;100451.34;1699598;84;21867;-61
2021/08/23 06:00:42;;;;;;;3.75;2.30;;;;;;;34.81;35.42;100453.94;1700973;83;21007;-61
2021/08/23 06:03:09;;;;;;;3.98;2.30;;;;;;;34.82;35.45;100455.55;1703188;82;21021;-61
2021/08/23 06:05:38;;;;;;;3.67;2.37;;;;;;;34.94;35.45;100450.09;1683844;84;21555;-61
2021/08/23 06:08:06;;;;;;;4.22;1.98;;;;;;;35.11;34.98;100455.81;1692914;83;21131;-61
2021/08/23 06:10:33;;;;;;;4.08;2.10;;;;;;;35.03;34.15;100452.11;1700926;84;22077;-62
2021/08/23 06:13:00;;;;;;;3.20;2.20;;;;;;;34.67;34.73;100453.54;1698125;83;21073;-62
2021/08/23 06:15:26;;;;;;;5.20;2.25;;;;;;;34.40;35.41;100447.67;1699734;82;21068;-61
2021/08/23 06:17:53;;;;;;;2.65;2.00;;;;;;;34.55;36.34;100445.66;1698441;82;21325;-62
2021/08/23 06:20:20;;;;;;;4.37;2.50;;;;;;;34.79;35.38;100438.05;1696972;82;21072;-61
2021/08/23 06:22:46;;;;;;;3.20;1.77;;;;;;;34.95;34.92;100447.59;1687685;84;21232;-62
2021/08/23 06:25:13;;;;;;;3.95;2.30;;;;;;;34.69;34.38;100443.14;1700636;82;20956;-59
2021/08/23 06:27:40;;;;;;;3.10;2.08;;;;;;;34.00;35.28;100448.31;1700319;82;21154;-59
2021/08/23 06:30:08;;;;;;;5.80;2.40;;;;;;;33.69;36.48;100445.30;1700761;82;22279;-61
2021/08/23 06:32:35;;;;;;;3.72;2.17;;;;;;;33.69;35.77;100437.19;1702581;82;21077;-61
2021/08/23 06:35:03;;;;;;;3.67;2.25;;;;;;;33.55;36.15;100446.38;1701866;82;21800;-62
2021/08/23 06:37:31;;;;;;;5.35;2.22;;;;;;;33.47;35.80;100441.84;1701370;82;20941;-62
2021/08/23 06:40:04;;;;;;;3.20;2.33;;;;;;;33.22;36.82;100442.84;1701303;82;22432;-62
2021/08/23 06:42:29;;;;;;;3.70;2.10;;;;;;;33.04;36.69;100438.16;1702983;82;21070;-62
2021/08/23 06:44:56;;;;;;;2.92;1.98;;;;;;;32.82;38.12;100447.33;1701291;82;20992;-62
2021/08/23 06:47:22;;;;;;;4.55;2.40;;;;;;;32.97;37.93;100448.13;1704856;82;21120;-59
2021/08/23 06:49:48;;;;;;;3.67;2.50;;;;;;;33.31;38.06;100446.27;1699021;82;21004;-61
2021/08/23 06:52:15;;;;;;;4.35;2.47;;;;;;;33.51;37.55;100446.81;1702921;82;21008;-61
2021/08/23 06:54:41;;;;;;;3.05;2.47;;;;;;;33.42;37.92;100442.04;1704701;82;21011;-61
2021/08/23 06:57:07;;;;;;;3.90;2.27;;;;;;;33.53;38.53;100444.59;1700369;83;20970;-62
2021/08/23 06:59:34;;;;;;;3.75;2.40;;;;;;;33.83;37.06;100444.41;1701775;82;21125;-58
2021/08/23 07:02:01;;;;;;;5.65;2.40;;;;;;;33.99;36.59;100441.33;1699610;83;20976;-60
2021/08/23 07:04:28;;;;;;;3.80;2.42;;;;;;;34.11;36.79;100448.10;1707577;82;21541;-59
2021/08/23 07:06:55;;;;;;;3.95;2.60;;;;;;;34.28;36.39;100441.67;1701076;83;20989;-62
2021/08/23 07:09:23;;;;;;;4.15;2.40;;;;;;;34.33;36.12;100437.41;1700859;82;21585;-58
2021/08/23 07:11:50;;;;;;;3.00;2.33;;;;;;;34.47;36.67;100436.25;1700719;82;21100;-59
2021/08/23 07:14:16;;;;;;;3.98;2.52;;;;;;;34.75;36.49;100435.80;1699320;83;21035;-62
2021/08/23 07:16:43;;;;;;;4.40;3.12;;;;;;;35.11;36.12;100438.20;1699976;84;21000;-63
2021/08/23 07:19:09;;;;;;;4.65;2.50;;;;;;;35.10;35.77;100434.70;1699406;83;20993;-61
2021/08/23 07:21:36;;;;;;;3.47;2.47;;;;;;;35.14;35.42;100435.38;1694922;84;21072;-62
2021/08/23 07:24:06;;;;;;;5.28;2.83;;;;;;;35.22;35.85;100437.15;1677195;84;21084;-61
2021/08/23 07:26:33;;;;;;;3.27;2.30;;;;;;;35.54;35.10;100434.78;1682480;82;21070;-60
2021/08/23 07:28:59;;;;;;;3.55;2.30;;;;;;;35.58;34.43;100441.66;1698724;83;20996;-60
2021/08/23 07:31:26;;;;;;;4.78;2.30;;;;;;;35.56;34.81;100444.69;1689120;84;20983;-58
2021/08/23 07:33:52;;;;;;;3.67;2.80;;;;;;;35.56;34.49;100446.05;1685143;84;21137;-61
2021/08/23 07:36:19;;;;;;;6.55;2.58;;;;;;;35.36;35.22;100435.41;1695956;82;20984;-61
2021/08/23 07:38:46;;;;;;;5.33;2.77;;;;;;;35.28;34.73;100436.56;1698495;83;21111;-61
2021/08/23 07:41:13;;;;;;;3.65;2.47;;;;;;;35.30;34.87;100449.76;1700505;84;21016;-60
2021/08/23 07:43:40;;;;;;;8.65;2.80;;;;;;;35.39;35.24;100443.63;1700425;83;21589;-62
2021/08/23 07:46:09;;;;;;;4.45;2.33;;;;;;;35.51;35.07;100444.95;1700167;84;21174;-60
2021/08/23 07:48:36;;;;;;;5.33;2.37;;;;;;;35.64;34.52;100447.02;1696294;82;21559;-63
2021/08/23 07:51:02;;;;;;;3.02;2.65;;;;;;;35.88;34.19;100443.93;1700625;84;20932;-60
2021/08/23 07:53:30;;;;;;;3.20;2.37;;;;;;;36.04;33.01;100447.48;1688623;83;20988;-57
2021/08/23 07:55:57;;;;;;;6.62;2.58;;;;;;;35.96;33.74;100445.13;1697258;84;20909;-61
2021/08/23 07:58:23;;;;;;;4.78;2.58;;;;;;;36.18;34.00;100441.59;1702897;82;20944;-60
2021/08/23 08:00:50;;;;;;;2.98;2.22;;;;;;;36.35;33.43;100445.30;1682423;82;21798;-60
2021/08/23 08:03:16;;;;;;;3.50;2.52;;;;;;;36.32;33.93;100439.80;1704261;83;21012;-61
2021/08/23 08:05:43;;;;;;;4.97;2.77;;;;;;;36.64;33.57;100437.84;1708591;82;21134;-60
2021/08/23 08:08:10;;;;;;;3.60;2.33;;;;;;;37.00;33.09;100433.95;1702375;83;21122;-58
2021/08/23 08:10:38;;;;;;;5.20;2.33;;;;;;;36.84;32.52;100433.99;1703236;82;21089;-61
2021/08/23 08:13:06;;;;;;;4.17;2.60;;;;;;;36.40;31.63;100436.87;1701244;83;21826;-61
2021/08/23 08:15:33;;;;;;;3.33;2.45;;;;;;;35.69;32.56;100437.87;1704724;82;21005;-60
2021/08/23 08:18:00;;;;;;;5.47;2.92;;;;;;;35.08;33.35;100437.53;1686155;84;21008;-59
2021/08/23 08:20:27;;;;;;;3.50;2.80;;;;;;;34.65;34.65;100424.65;1701725;83;21146;-60
2021/08/23 08:22:53;;;;;;;4.30;3.12;;;;;;;34.22;35.33;100427.37;1701150;84;21495;-61
2021/08/23 08:25:19;;;;;;;4.15;3.33;;;;;;;34.02;36.11;100424.97;1702115;84;21467;-61
2021/08/23 08:27:47;;;;;;;5.33;2.92;;;;;;;34.01;36.54;100428.81;1702753;82;21008;-58
2021/08/23 08:30:16;;;;;;;5.37;4.87;;;;;;;34.36;37.54;100431.31;1704251;82;20961;-60
2021/08/23 08:32:46;;;;;;;4.55;3.70;;;;;;;34.82;35.88;100420.34;1704820;82;21075;-61
2021/08/23 08:35:13;;;;;;;3.67;2.90;;;;;;;34.95;35.71;100421.86;1692660;84;21068;-60
2021/08/23 08:37:39;;;;;;;4.87;3.45;;;;;;;35.04;34.32;100425.80;1706420;82;21143;-60
2021/08/23 08:40:08;;;;;;;3.42;3.02;;;;;;;34.86;35.57;100429.35;1723058;82;20988;-60
2021/08/23 08:42:35;;;;;;;4.20;3.37;;;;;;;34.93;34.44;100424.69;1717676;82;21069;-61
2021/08/23 08:45:03;;;;;;;5.87;3.15;;;;;;;34.88;36.13;100429.00;1723972;82;21560;-60
2021/08/23 08:47:30;;;;;;;3.83;2.80;;;;;;;35.17;34.44;100426.56;1719846;82;21114;-60
2021/08/23 08:49:58;;;;;;;4.08;3.15;;;;;;;35.27;33.35;100423.34;1718891;82;21154;-57
2021/08/23 08:52:25;;;;;;;3.77;2.90;;;;;;;34.87;34.05;100422.80;1704380;82;21033;-61
2021/08/23 08:54:51;;;;;;;3.95;3.40;;;;;;;34.53;34.64;100426.81;1702568;84;20968;-59
2021/08/23 08:57:18;;;;;;;4.33;3.10;;;;;;;34.41;35.19;100418.69;1704971;82;21057;-60
2021/08/23 08:59:45;;;;;;;4.53;3.30;;;;;;;34.74;34.53;100417.17;1698968;84;20948;-57
2021/08/23 09:02:11;;;;;;;3.27;2.87;;;;;;;34.69;34.93;100414.14;1701380;83;21176;-60
2021/08/23 09:04:39;;;;;;;4.17;3.00;;;;;;;35.17;34.34;100417.08;1653729;84;21126;-61
2021/08/23 09:07:08;;;;;;;4.62;3.33;;;;;;;35.41;34.42;100416.95;1658702;85;33651;-61
2021/08/23 09:09:35;;;;;;;5.17;2.98;;;;;;;35.62;34.28;100420.84;1659448;85;21019;-61
2021/08/23 09:12:10;;;;;;;6.30;4.90;;;;;;;35.99;33.65;100408.39;1676152;84;20984;-61
2021/08/23 09:14:49;;;;;;;6.67;3.17;;;;;;;36.24;33.51;100415.77;1677263;83;23213;-61
2021/08/23 09:17:16;;;;;;;4.60;3.00;;;;;;;36.01;33.72;100417.77;1677182;83;21140;-60
2021/08/23 09:19:42;;;;;;;3.70;2.80;;;;;;;35.84;33.11;100415.39;1676408;83;21000;-58
2021/08/23 09:22:12;;;;;;;5.55;3.20;;;;;;;35.76;33.51;100429.88;1676955;83;21090;-60
2021/08/23 09:24:40;;;;;;;5.00;3.25;;;;;;;35.37;33.75;100413.36;1676766;83;21061;-59
2021/08/23 09:27:11;;;;;;;5.40;3.27;;;;;;;35.25;34.22;100405.30;1678201;83;21100;-61
2021/08/23 09:30:01;;;;;;;3.83;3.22;;;;;;;35.30;33.72;100418.02;1676538;83;21000;-58
2021/08/23 09:32:32;;;;;;;3.95;2.98;;;;;;;35.20;33.42;100421.81;1668294;83;20904;-61
2021/08/23 09:34:59;;;;;;;5.15;3.30;;;;;;;35.05;32.86;100414.64;1665371;85;20952;-63
2021/08/23 09:37:28;;;;;;;3.70;3.15;;;;;;;35.09;33.50;100418.23;1668343;83;20933;-60
2021/08/23 09:39:55;;;;;;;3.40;2.75;;;;;;;35.33;32.93;100412.48;1668229;84;21803;-62
2021/08/23 09:42:24;;;;;;;4.08;3.20;;;;;;;35.37;32.68;100412.01;1669487;84;21474;-62
2021/08/23 09:44:51;;;;;;;4.10;2.60;;;;;;;35.01;33.30;100411.05;1676781;84;21047;-61
2021/08/23 09:47:18;;;;;;;3.60;2.55;;;;;;;35.10;33.00;100410.32;1678618;83;20944;-59
2021/08/23 09:49:46;;;;;;;4.15;2.90;;;;;;;35.46;32.78;100415.37;1659900;84;21142;-59
2021/08/23 09:52:22;;;;;;;5.37;2.83;;;;;;;35.82;32.10;100415.72;1677445;84;21158;-61
2021/08/23 09:55:08;;;;;;;3.47;2.35;;;;;;;35.82;31.69;100415.72;1675995;84;20965;-62
2021/08/23 09:57:41;;;;;;;3.50;3.00;;;;;;;35.90;31.49;100418.04;1665703;84;21062;-62
2021/08/23 10:00:14;;;;;;;3.65;2.50;;;;;;;36.05;30.39;100424.63;1677584;83;21119;-62
2021/08/23 10:02:47;;;;;;;3.65;2.90;;;;;;;35.72;30.72;100419.52;1678579;83;21042;-61
2021/08/23 10:05:16;;;;;;;5.47;3.50;;;;;;;35.42;30.81;100411.78;1700257;83;21127;-58
2021/08/23 10:07:43;;;;;;;3.52;2.77;;;;;;;35.40;31.64;100409.97;1700917;82;21476;-61
2021/08/23 10:10:10;;;;;;;3.60;3.00;;;;;;;35.56;30.92;100413.52;1692817;84;21000;-61
2021/08/23 10:12:38;;;;;;;4.28;3.12;;;;;;;35.64;30.84;100410.41;1701597;83;21060;-60
2021/08/23 10:15:06;;;;;;;3.60;3.12;;;;;;;35.31;30.41;100408.78;1700682;82;20941;-57
2021/08/23 10:17:39;;;;;;;3.35;2.80;;;;;;;34.93;31.88;100401.12;1699373;84;21133;-59
2021/08/23 10:20:09;;;;;;;3.65;2.83;;;;;;;34.83;32.19;100396.96;1699813;84;21107;-60
2021/08/23 10:22:38;;;;;;;;;;;;;;;34.82;31.83;100404.09;1703080;84;21162;-61
2021/08/23 10:25:06;;;;;;;3.65;2.85;;;;;;;35.06;31.99;100406.73;1671433;84;20092;-60
2021/08/23 10:27:34;;;;;;;4.00;2.75;;;;;;;35.36;31.00;100396.10;1674299;84;21149;-60
2021/08/23 10:30:01;;;;;;;4.10;3.05;;;;;;;35.43;31.29;100397.08;1702343;82;21136;-59
2021/08/23 10:32:40;;;;;;;4.08;3.02;;;;;;;35.54;30.21;100407.66;1699655;83;20957;-61
2021/08/23 10:35:22;;;;;;;4.37;3.30;;;;;;;35.56;30.94;100386.97;1699130;84;21151;-61
2021/08/23 10:37:50;;;;;;;3.58;2.90;;;;;;;36.01;30.96;100391.98;1698078;83;20993;-61
2021/08/23 10:40:27;;;;;;;6.28;3.33;;;;;;;36.25;30.27;100391.55;1687605;84;20862;-61
2021/08/23 10:42:53;;;;;;;5.33;2.72;;;;;;;36.21;30.90;100394.76;1678421;84;22283;-60
2021/08/23 10:45:20;;;;;;;3.65;3.00;;;;;;;36.15;29.93;100395.61;1702108;82;21306;-61
2021/08/23 10:47:47;;;;;;;3.92;2.92;;;;;;;36.09;30.16;100390.80;1715999;82;21553;-61
2021/08/23 10:50:25;;;;;;;4.60;3.15;;;;;;;36.17;30.56;100392.53;1711069;82;21024;-60
2021/08/23 10:52:53;;;;;;;3.20;2.90;;;;;;;36.28;29.99;100390.84;1660122;85;21107;-61
2021/08/23 10:55:25;;;;;;;4.33;3.02;;;;;;;36.29;29.05;100385.09;1662460;85;21119;-61
2021/08/23 10:58:07;;;;;;;5.05;2.92;;;;;;;36.11;28.15;100388.53;1672192;85;21548;-60
2021/08/23 11:00:40;;;;;;;4.83;2.83;;;;;;;35.73;29.27;100387.22;1652756;85;21137;-61
2021/08/23 11:03:08;;;;;;;3.58;2.77;;;;;;;35.83;29.23;100388.02;1703607;82;20972;-59
2021/08/23 11:05:36;;;;;;;4.33;2.87;;;;;;;35.67;29.53;100381.25;1713368;82;20964;-60
2021/08/23 11:08:10;;;;;;;6.62;3.47;;;;;;;35.42;29.89;100377.89;1707255;82;21285;-60
2021/08/23 11:10:39;;;;;;;3.62;2.95;;;;;;;35.17;30.40;100389.98;1714483;82;22360;-60
2021/08/23 11:13:16;;;;;;;3.67;3.22;;;;;;;34.99;30.77;100384.04;1713274;82;21103;-59
2021/08/23 11:15:44;;;;;;;3.87;3.02;;;;;;;34.67;31.61;100383.14;1719995;82;20988;-57
2021/08/23 11:18:14;;;;;;;5.40;3.60;;;;;;;34.73;32.62;100379.05;1717169;82;21000;-59
2021/08/23 11:20:48;;;;;;;3.65;2.75;;;;;;;35.13;31.30;100374.20;1720099;82;21843;-61
2021/08/23 11:23:26;;;;;;;4.45;3.17;;;;;;;35.57;30.84;100380.41;1723957;82;20886;-60
2021/08/23 11:25:54;;;;;;;4.95;3.62;;;;;;;35.81;29.56;100381.61;1721226;82;20952;-57